createdAt,value
2019-01-19T00:00:01.935Z,0.33
2019-01-19T00:02:37.030Z,0.19
2019-01-19T00:05:11.733Z,0.14
2019-01-19T00:07:46.417Z,0.08
2019-01-19T00:10:33.285Z,0.11
2019-01-19T00:13:23.411Z,0.18
2019-01-19T00:16:04.221Z,0.24
2019-01-19T00:18:52.581Z,0.25
2019-01-19T00:21:27.544Z,0.25
2019-01-19T00:24:05.187Z,0.19
2019-01-19T00:26:49.229Z,0.08
2019-01-19T00:29:23.918Z,0.04
2019-01-19T00:32:02.053Z,0.09
2019-01-19T00:34:59.941Z,0.06
2019-01-19T00:37:32.175Z,0.08
2019-01-19T00:40:22.317Z,0.03
2019-01-19T00:42:54.932Z,0.13
2019-01-19T00:45:29.688Z,0.09
2019-01-19T00:48:10.797Z,0.06
2019-01-19T00:50:54.802Z,0.04
2019-01-19T00:53:29.560Z,0.09
2019-01-19T00:56:10.707Z,-0.01
2019-01-19T00:58:42.971Z,0.07
2019-01-19T01:01:15.249Z,0.05
2019-01-19T01:03:50.379Z,0.10
2019-01-19T01:06:38.790Z,0.02
2019-01-19T01:09:19.822Z,-0.05
2019-01-19T01:11:54.524Z,0.05
2019-01-19T01:14:52.180Z,-0.07
2019-01-19T01:17:27.205Z,-0.16
2019-01-19T01:20:08.402Z,-0.09
2019-01-19T01:22:58.472Z,-0.06
2019-01-19T01:25:33.474Z,-0.01
2019-01-19T01:28:23.575Z,-0.01
2019-01-19T01:30:55.853Z,0.05
2019-01-19T01:33:33.986Z,-0.02
2019-01-19T01:36:08.842Z,0.04
2019-01-19T01:39:17.775Z,0.01
2019-01-19T01:41:53.027Z,-0.08
2019-01-19T01:44:30.662Z,0.04
2019-01-19T01:47:11.461Z,0.08
2019-01-19T01:49:52.597Z,-0.06
2019-01-19T01:52:27.548Z,-0.08
2019-01-19T01:55:02.423Z,-0.03
2019-01-19T01:57:33.367Z,-0.02
2019-01-19T02:00:23.895Z,-0.09
2019-01-19T02:02:56.141Z,-0.02
2019-01-19T02:05:40.194Z,0.06
2019-01-19T02:08:16.964Z,0.09
2019-01-19T02:11:10.037Z,0.05
2019-01-19T02:14:00.099Z,0.00
2019-01-19T02:17:06.872Z,-0.05
2019-01-19T02:19:59.418Z,-0.12
2019-01-19T02:22:37.358Z,-0.09
2019-01-19T02:25:18.006Z,-0.11
2019-01-19T02:27:55.478Z,-0.08
2019-01-19T02:30:46.912Z,-0.06
2019-01-19T02:33:28.026Z,-0.09
2019-01-19T02:36:15.106Z,-0.05
2019-01-19T02:39:20.302Z,-0.03
2019-01-19T02:41:55.495Z,-0.12
2019-01-19T02:44:30.469Z,-0.17
2019-01-19T02:47:24.676Z,-0.16
2019-01-19T02:50:11.663Z,-0.21
2019-01-19T02:52:46.593Z,-0.33
2019-01-19T02:55:45.702Z,-0.31
2019-01-19T02:58:29.400Z,-0.21
2019-01-19T03:01:16.984Z,-0.26
2019-01-19T03:03:57.269Z,-0.37
2019-01-19T03:06:35.229Z,-0.47
2019-01-19T03:09:09.989Z,-0.46
2019-01-19T03:15:15.401Z,-0.28
2019-01-19T03:18:02.383Z,-0.30
2019-01-19T03:20:34.637Z,-0.40
2019-01-19T03:23:09.620Z,-0.53
2019-01-19T03:25:41.941Z,-0.55
2019-01-19T03:28:19.990Z,-0.50
2019-01-19T03:31:25.157Z,-0.47
2019-01-19T03:34:11.973Z,-0.40
2019-01-19T03:36:44.227Z,-0.38
2019-01-19T03:39:29.211Z,-0.45
2019-01-19T03:42:07.162Z,-0.46
2019-01-19T03:44:41.833Z,-0.50
2019-01-19T03:47:39.058Z,-0.43
2019-01-19T03:50:32.299Z,-0.44
2019-01-19T03:53:04.636Z,-0.34
2019-01-19T03:55:36.856Z,-0.40
2019-01-19T03:58:21.143Z,-0.53
2019-01-19T04:01:14.795Z,-0.58
2019-01-19T04:04:05.196Z,-0.64
2019-01-19T04:06:43.149Z,-0.58
2019-01-19T04:09:36.299Z,-0.48
2019-01-19T04:12:13.910Z,-0.39
2019-01-19T04:15:05.804Z,-0.43
2019-01-19T04:17:41.563Z,-0.49
2019-01-19T04:20:31.468Z,-0.53
2019-01-19T04:23:01.791Z,-0.50
2019-01-19T04:25:34.057Z,-0.49
2019-01-19T04:28:04.586Z,-0.50
2019-01-19T04:30:33.772Z,-0.50
2019-01-19T04:33:02.889Z,-0.46
2019-01-19T04:35:32.161Z,-0.46
2019-01-19T04:38:01.260Z,-0.48
2019-01-19T04:40:30.494Z,-0.51
2019-01-19T04:42:59.740Z,-0.50
2019-01-19T04:45:28.850Z,-0.51
2019-01-19T04:47:57.968Z,-0.51
2019-01-19T04:50:27.195Z,-0.50
2019-01-19T04:52:56.411Z,-0.51
2019-01-19T04:55:25.665Z,-0.50
2019-01-19T04:57:54.888Z,-0.52
2019-01-19T05:00:24.153Z,-0.51
2019-01-19T05:02:53.418Z,-0.55
2019-01-19T05:05:22.641Z,-0.60
2019-01-19T05:07:51.840Z,-0.55
2019-01-19T05:10:21.036Z,-0.56
2019-01-19T05:12:50.268Z,-0.53
2019-01-19T05:15:19.741Z,-0.54
2019-01-19T05:17:49.207Z,-0.52
2019-01-19T05:20:18.493Z,-0.56
2019-01-19T05:22:47.680Z,-0.53
2019-01-19T05:25:16.893Z,-0.51
2019-01-19T05:27:46.147Z,-0.54
2019-01-19T05:30:17.345Z,-0.55
2019-01-19T05:32:46.788Z,-0.55
2019-01-19T05:35:16.181Z,-0.55
2019-01-19T05:37:45.399Z,-0.52
2019-01-19T05:40:14.682Z,-0.53
2019-01-19T05:42:43.879Z,-0.52
2019-01-19T05:45:14.611Z,-0.52
2019-01-19T05:47:43.813Z,-0.51
2019-01-19T05:50:16.052Z,-0.48
2019-01-19T05:52:45.321Z,-0.57
2019-01-19T05:55:14.545Z,-0.49
2019-01-19T05:57:43.762Z,-0.48
2019-01-19T06:00:18.440Z,-0.50
2019-01-19T06:02:47.617Z,-0.49
2019-01-19T06:05:16.962Z,-0.49
2019-01-19T06:07:46.157Z,-0.48
2019-01-19T06:10:17.156Z,-0.47
2019-01-19T06:12:46.361Z,-0.52
2019-01-19T06:15:16.303Z,-0.45
2019-01-19T06:17:45.481Z,-0.47
2019-01-19T06:20:19.195Z,-0.48
2019-01-19T06:23:06.281Z,-0.51
2019-01-19T06:25:53.551Z,-0.54
2019-01-19T06:28:22.767Z,-0.52
2019-01-19T06:30:52.131Z,-0.51
2019-01-19T06:33:21.542Z,-0.51
2019-01-19T06:35:50.658Z,-0.53
2019-01-19T06:38:19.848Z,-0.53
2019-01-19T06:40:49.059Z,-0.54
2019-01-19T06:43:18.251Z,-0.54
2019-01-19T06:45:47.450Z,-0.54
2019-01-19T06:48:16.651Z,-0.51
2019-01-19T06:50:45.841Z,-0.55
2019-01-19T06:53:15.038Z,-0.55
2019-01-19T06:55:44.462Z,-0.52
2019-01-19T06:58:13.647Z,-0.51
2019-01-19T07:00:42.891Z,-0.54
2019-01-19T07:03:12.059Z,-0.54
2019-01-19T07:05:41.307Z,-0.55
2019-01-19T07:08:28.825Z,-0.50
2019-01-19T07:11:15.903Z,-0.52
2019-01-19T07:13:45.145Z,-0.52
2019-01-19T07:16:14.332Z,-0.46
2019-01-19T07:18:43.536Z,-0.48
2019-01-19T07:21:12.764Z,-0.43
2019-01-19T07:23:42.031Z,-0.42
2019-01-19T07:26:11.595Z,-0.46
2019-01-19T07:28:40.794Z,-0.43
2019-01-19T07:31:10.200Z,-0.39
2019-01-19T07:33:39.417Z,-0.37
2019-01-19T07:36:08.622Z,-0.36
2019-01-19T07:38:37.811Z,-0.36
2019-01-19T07:41:07.003Z,-0.36
2019-01-19T07:43:36.268Z,-0.37
2019-01-19T07:46:07.091Z,-0.32
2019-01-19T07:48:36.285Z,-0.31
2019-01-19T07:51:05.510Z,-0.30
2019-01-19T07:53:34.689Z,-0.30
2019-01-19T07:56:04.047Z,-0.29
2019-01-19T07:58:33.291Z,-0.27
2019-01-19T08:01:02.489Z,-0.22
2019-01-19T08:03:31.714Z,-0.20
2019-01-19T08:06:00.911Z,-0.23
2019-01-19T08:08:30.107Z,-0.22
2019-01-19T08:10:59.377Z,-0.17
2019-01-19T08:13:28.524Z,-0.15
2019-01-19T08:15:57.707Z,-0.16
2019-01-19T08:18:26.918Z,-0.14
2019-01-19T08:20:56.125Z,-0.25
2019-01-19T08:23:26.220Z,-0.18
2019-01-19T08:25:55.473Z,-0.13
2019-01-19T08:28:24.706Z,-0.11
2019-01-19T08:30:53.975Z,-0.10
2019-01-19T08:33:23.180Z,-0.09
2019-01-19T08:35:52.400Z,-0.11
2019-01-19T08:38:22.539Z,-0.04
2019-01-19T08:40:51.763Z,0.07
2019-01-19T08:43:28.877Z,0.09
2019-01-19T08:45:58.059Z,0.19
2019-01-19T08:48:27.254Z,0.09
2019-01-19T08:50:56.458Z,0.16
2019-01-19T08:53:25.640Z,0.17
2019-01-19T08:55:54.841Z,0.26
2019-01-19T08:58:24.100Z,0.49
2019-01-19T09:00:53.285Z,0.69
2019-01-19T09:03:22.459Z,0.58
2019-01-19T09:05:51.733Z,0.74
2019-01-19T09:08:38.889Z,0.94
2019-01-19T09:11:08.122Z,1.26
2019-01-19T09:13:55.332Z,1.47
2019-01-19T09:16:42.548Z,1.43
2019-01-19T09:19:11.740Z,1.48
2019-01-19T09:21:40.948Z,1.52
2019-01-19T09:24:10.821Z,1.59
2019-01-19T09:26:39.998Z,1.26
2019-01-19T09:29:09.187Z,1.67
2019-01-19T09:31:38.438Z,1.43
2019-01-19T09:34:07.617Z,1.47
2019-01-19T09:36:36.880Z,1.79
2019-01-19T09:39:09.401Z,1.99
2019-01-19T09:41:38.578Z,2.28
2019-01-19T09:44:09.993Z,1.89
2019-01-19T09:46:39.267Z,1.49
2019-01-19T09:49:08.606Z,1.34
2019-01-19T09:51:37.959Z,1.19
2019-01-19T09:54:07.447Z,1.05
2019-01-19T09:56:36.612Z,0.97
2019-01-19T09:59:06.790Z,0.92
2019-01-19T10:01:54.097Z,0.87
2019-01-19T10:04:23.260Z,0.90
2019-01-19T10:06:53.551Z,0.91
2019-01-19T10:09:22.860Z,0.91
2019-01-19T10:11:52.112Z,0.95
2019-01-19T10:14:21.297Z,1.02
2019-01-19T10:16:50.530Z,1.08
2019-01-19T10:19:37.562Z,1.10
2019-01-19T10:22:25.017Z,1.11
2019-01-19T10:24:54.217Z,1.22
2019-01-19T10:27:23.425Z,1.19
2019-01-19T10:30:14.033Z,1.25
2019-01-19T10:32:43.212Z,1.28
2019-01-19T10:35:14.060Z,1.32
2019-01-19T10:37:43.370Z,1.32
2019-01-19T10:40:15.196Z,1.39
2019-01-19T10:42:44.395Z,1.47
2019-01-19T10:45:16.318Z,1.46
2019-01-19T10:47:45.583Z,1.41
2019-01-19T10:50:17.263Z,1.48
2019-01-19T10:52:46.935Z,1.53
2019-01-19T10:55:18.880Z,1.65
2019-01-19T10:58:06.231Z,1.69
2019-01-19T11:00:35.967Z,1.66
2019-01-19T11:03:05.595Z,1.72
2019-01-19T11:05:34.809Z,1.69
2019-01-19T11:08:06.497Z,1.80
2019-01-19T11:10:36.188Z,1.77
2019-01-19T11:13:05.396Z,1.76
2019-01-19T11:15:34.619Z,1.81
2019-01-19T11:18:03.870Z,1.82
2019-01-19T11:20:51.237Z,1.83
2019-01-19T11:23:20.514Z,1.92
2019-01-19T11:25:49.635Z,1.91
2019-01-19T11:28:18.868Z,1.96
2019-01-19T11:30:48.135Z,1.88
2019-01-19T11:33:17.327Z,1.94
2019-01-19T11:35:46.529Z,1.98
2019-01-19T11:38:20.020Z,2.00
2019-01-19T11:40:46.696Z,2.07
2019-01-19T11:43:15.918Z,2.17
2019-01-19T11:45:45.209Z,2.12
2019-01-19T11:48:14.475Z,2.18
2019-01-19T11:50:43.730Z,2.27
2019-01-19T11:53:13.005Z,2.24
2019-01-19T11:55:42.222Z,2.10
2019-01-19T11:58:11.472Z,2.12
2019-01-19T12:00:41.020Z,2.16
2019-01-19T12:03:10.222Z,2.18
2019-01-19T12:05:39.771Z,2.25
2019-01-19T12:08:09.922Z,2.34
2019-01-19T12:10:39.167Z,2.33
2019-01-19T12:13:08.486Z,2.30
2019-01-19T12:15:37.760Z,2.29
2019-01-19T12:18:07.310Z,2.37
2019-01-19T12:20:41.782Z,2.40
2019-01-19T12:23:28.983Z,2.43
2019-01-19T12:25:58.206Z,2.46
2019-01-19T12:28:27.418Z,2.51
2019-01-19T12:30:56.641Z,2.60
2019-01-19T12:33:25.844Z,2.63
2019-01-19T12:35:55.061Z,2.69
2019-01-19T12:38:27.063Z,2.65
2019-01-19T12:40:55.153Z,2.66
2019-01-19T12:43:24.436Z,2.68
2019-01-19T12:45:55.376Z,2.71
2019-01-19T12:48:24.638Z,2.65
2019-01-19T12:50:53.900Z,2.67
2019-01-19T12:53:23.088Z,2.69
2019-01-19T12:55:52.274Z,2.75
2019-01-19T12:58:21.665Z,2.76
2019-01-19T13:00:50.848Z,2.81
2019-01-19T13:03:20.073Z,2.84
2019-01-19T13:05:54.931Z,2.85
2019-01-19T13:08:34.380Z,2.85
2019-01-19T13:11:17.387Z,2.79
2019-01-19T13:13:47.930Z,2.77
2019-01-19T13:16:38.549Z,2.76
2019-01-19T13:19:19.667Z,2.83
2019-01-19T13:22:25.077Z,2.85
2019-01-19T13:25:00.148Z,2.87
2019-01-19T13:27:43.866Z,2.72
2019-01-19T13:30:27.760Z,2.70
2019-01-19T13:33:00.129Z,2.78
2019-01-19T13:35:32.281Z,2.86
2019-01-19T13:38:22.461Z,2.94
2019-01-19T13:40:57.571Z,2.91
2019-01-19T13:43:29.853Z,2.81
2019-01-19T13:46:16.190Z,2.94
2019-01-19T13:48:57.012Z,2.99
2019-01-19T13:51:34.968Z,3.00
2019-01-19T13:54:34.526Z,2.94
2019-01-19T13:57:09.451Z,2.87
2019-01-19T13:59:47.012Z,2.78
2019-01-19T14:02:28.160Z,2.79
2019-01-19T14:05:12.210Z,2.71
2019-01-19T14:08:15.852Z,2.68
2019-01-19T14:10:53.585Z,2.66
2019-01-19T14:13:31.366Z,2.78
2019-01-19T14:16:15.415Z,2.83
2019-01-19T14:21:54.885Z,2.84
2019-01-19T14:24:32.684Z,2.80
2019-01-19T14:27:10.697Z,2.87
2019-01-19T14:29:58.070Z,2.85
2019-01-19T14:32:50.925Z,2.78
2019-01-19T14:35:23.927Z,2.65
2019-01-19T14:38:07.840Z,2.65
2019-01-19T14:40:42.665Z,2.66
2019-01-19T14:43:17.763Z,2.64
2019-01-19T14:45:58.710Z,2.63
2019-01-19T14:48:33.393Z,2.68
2019-01-19T14:51:14.339Z,2.70
2019-01-19T14:54:00.712Z,2.70
2019-01-19T14:59:29.349Z,2.76
2019-01-19T15:02:18.306Z,2.68
2019-01-19T15:04:56.013Z,2.66
2019-01-19T15:07:33.911Z,2.63
2019-01-19T15:10:08.876Z,2.67
2019-01-19T15:12:41.124Z,2.69
2019-01-19T15:15:37.238Z,2.65
2019-01-19T15:18:12.094Z,2.65
2019-01-19T15:20:44.385Z,2.60
2019-01-19T15:23:19.389Z,2.55
2019-01-19T15:26:15.004Z,2.53
2019-01-19T15:29:03.590Z,2.53
2019-01-19T15:31:48.013Z,2.46
2019-01-19T15:34:31.261Z,2.45
2019-01-19T15:37:09.067Z,2.42
2019-01-19T15:39:41.326Z,2.37
2019-01-19T15:42:35.940Z,2.28
2019-01-19T15:45:10.688Z,2.24
2019-01-19T15:48:00.804Z,2.17
2019-01-19T15:51:04.741Z,2.16
2019-01-19T15:53:56.483Z,2.14
2019-01-19T15:56:43.658Z,2.12
2019-01-19T15:59:32.485Z,2.06
2019-01-19T16:02:16.925Z,2.04
2019-01-19T16:04:55.081Z,1.99
2019-01-19T16:07:49.177Z,1.96
2019-01-19T16:10:32.975Z,1.90
2019-01-19T16:13:29.147Z,1.90
2019-01-19T16:16:04.018Z,1.88
2019-01-19T16:18:44.888Z,1.86
2019-01-19T16:21:17.171Z,1.80
2019-01-19T16:24:14.885Z,1.81
2019-01-19T16:26:55.878Z,1.77
2019-01-19T16:29:48.765Z,1.75
2019-01-19T16:32:30.001Z,1.77
2019-01-19T16:35:20.431Z,1.75
2019-01-19T16:37:55.504Z,1.71
2019-01-19T16:40:42.531Z,1.76
2019-01-19T16:43:20.225Z,1.75
2019-01-19T16:45:52.492Z,1.72
2019-01-19T16:48:53.373Z,1.67
2019-01-19T16:51:58.642Z,1.65
2019-01-19T16:54:39.590Z,1.69
2019-01-19T16:57:15.138Z,1.63
2019-01-19T16:59:56.804Z,1.61
2019-01-19T17:02:34.947Z,1.61
2019-01-19T17:05:24.357Z,1.65
2019-01-19T17:08:12.746Z,1.64
2019-01-19T17:11:05.892Z,1.63
2019-01-19T17:13:40.687Z,1.65
2019-01-19T17:16:30.851Z,1.58
2019-01-19T17:19:14.891Z,1.54
2019-01-19T17:21:49.963Z,1.52
2019-01-19T17:24:46.464Z,1.51
2019-01-19T17:27:24.503Z,1.49
2019-01-19T17:30:31.252Z,1.56
2019-01-19T17:33:08.807Z,1.54
2019-01-19T17:35:49.581Z,1.49
2019-01-19T17:38:47.507Z,1.53
2019-01-19T17:41:25.024Z,1.46
2019-01-19T17:44:06.438Z,1.47
2019-01-19T17:46:55.189Z,1.44
2019-01-19T17:49:43.629Z,1.43
2019-01-19T17:52:21.604Z,1.44
2019-01-19T17:55:05.985Z,1.42
2019-01-19T17:57:43.999Z,1.40
2019-01-19T18:00:32.895Z,1.42
2019-01-19T18:03:23.296Z,1.37
2019-01-19T18:05:58.267Z,1.34
2019-01-19T18:08:56.133Z,1.31
2019-01-19T18:11:43.421Z,1.31
2019-01-19T18:14:21.594Z,1.36
2019-01-19T18:17:20.935Z,1.34
2019-01-19T18:20:08.038Z,1.39
2019-01-19T18:22:43.065Z,1.38
2019-01-19T18:25:32.945Z,1.29
2019-01-19T18:28:05.249Z,1.30
2019-01-19T18:30:38.371Z,1.24
2019-01-19T18:33:25.527Z,1.22
2019-01-19T18:35:57.785Z,1.17
2019-01-19T18:38:30.020Z,1.22
2019-01-19T18:41:04.797Z,1.20
2019-01-19T18:44:06.005Z,1.15
2019-01-19T18:46:54.413Z,1.10
2019-01-19T18:49:44.487Z,1.11
2019-01-19T18:52:35.167Z,1.13
2019-01-19T18:55:16.315Z,1.07
2019-01-19T18:58:03.284Z,0.99
2019-01-19T19:00:50.211Z,0.89
2019-01-19T19:03:44.570Z,0.86
2019-01-19T19:06:23.085Z,0.77
2019-01-19T19:08:58.174Z,0.77
2019-01-19T19:11:47.994Z,0.78
2019-01-19T19:14:25.929Z,0.76
2019-01-19T19:17:03.555Z,0.72
2019-01-19T19:22:25.472Z,0.79
2019-01-19T19:25:20.555Z,0.72
2019-01-19T19:28:10.946Z,0.71
2019-01-19T19:30:43.430Z,0.66
2019-01-19T19:33:20.991Z,0.60
2019-01-19T19:36:13.453Z,0.56
2019-01-19T19:39:09.522Z,0.55
2019-01-19T19:41:43.691Z,0.54
2019-01-19T19:44:21.917Z,0.43
2019-01-19T19:47:08.990Z,0.34
2019-01-19T19:49:49.980Z,0.36
2019-01-19T19:52:19.298Z,0.29
2019-01-19T19:54:53.311Z,0.21
2019-01-19T19:57:22.475Z,0.18
2019-01-19T19:59:55.959Z,0.19
2019-01-19T20:02:25.271Z,0.19
2019-01-19T20:04:54.538Z,0.19
2019-01-19T20:07:23.759Z,0.16
2019-01-19T20:09:52.942Z,0.10
2019-01-19T20:12:22.219Z,0.16
2019-01-19T20:14:51.407Z,0.09
2019-01-19T20:17:20.674Z,0.11
2019-01-19T20:19:49.868Z,0.06
2019-01-19T20:22:19.042Z,0.06
2019-01-19T20:24:48.318Z,0.05
2019-01-19T20:27:17.522Z,-0.01
2019-01-19T20:29:46.720Z,0.02
2019-01-19T20:32:15.904Z,0.02
2019-01-19T20:34:45.117Z,0.04
2019-01-19T20:37:14.303Z,0.02
2019-01-19T20:39:43.491Z,-0.01
2019-01-19T20:42:12.688Z,0.00
2019-01-19T20:44:41.876Z,0.00
2019-01-19T20:47:11.058Z,-0.02
2019-01-19T20:49:40.293Z,-0.06
2019-01-19T20:52:09.556Z,-0.04
2019-01-19T20:54:38.942Z,-0.04
2019-01-19T20:57:08.080Z,-0.06
2019-01-19T20:59:37.367Z,-0.11
2019-01-19T21:02:06.642Z,-0.12
2019-01-19T21:04:35.868Z,-0.15
2019-01-19T21:07:05.223Z,-0.13
2019-01-19T21:09:34.465Z,-0.16
2019-01-19T21:12:03.643Z,-0.22
2019-01-19T21:14:32.832Z,-0.24
2019-01-19T21:17:02.035Z,-0.24
2019-01-19T21:19:31.222Z,-0.28
2019-01-19T21:22:00.408Z,-0.27
2019-01-19T21:24:29.690Z,-0.30
2019-01-19T21:26:58.864Z,-0.30
2019-01-19T21:29:28.138Z,-0.29
2019-01-19T21:31:57.357Z,-0.31
2019-01-19T21:34:26.544Z,-0.30
2019-01-19T21:36:55.816Z,-0.34
2019-01-19T21:39:25.030Z,-0.41
2019-01-19T21:41:54.230Z,-0.44
2019-01-19T21:44:23.424Z,-0.41
2019-01-19T21:46:52.660Z,-0.44
2019-01-19T21:49:21.991Z,-0.43
2019-01-19T21:51:51.160Z,-0.46
2019-01-19T21:54:20.418Z,-0.48
2019-01-19T21:56:49.596Z,-0.51
2019-01-19T21:59:18.800Z,-0.54
2019-01-19T22:01:47.988Z,-0.55
2019-01-19T22:04:17.176Z,-0.56
2019-01-19T22:06:46.362Z,-0.53
2019-01-19T22:09:17.480Z,-0.56
2019-01-19T22:11:46.676Z,-0.54
2019-01-19T22:14:15.904Z,-0.60
2019-01-19T22:16:45.122Z,-0.63
2019-01-19T22:19:14.320Z,-0.67
2019-01-19T22:21:43.496Z,-0.68
2019-01-19T22:24:12.960Z,-0.65
2019-01-19T22:26:43.724Z,-0.71
2019-01-19T22:29:12.908Z,-0.74
2019-01-19T22:31:42.105Z,-0.76
2019-01-19T22:34:11.298Z,-0.78
2019-01-19T22:36:40.490Z,-0.80
2019-01-19T22:39:09.704Z,-0.84
2019-01-19T22:41:38.905Z,-0.86
2019-01-19T22:44:08.189Z,-0.89
2019-01-19T22:46:37.475Z,-0.88
2019-01-19T22:49:06.726Z,-0.89
2019-01-19T22:51:35.852Z,-0.89
2019-01-19T22:54:05.142Z,-0.94
2019-01-19T22:56:34.318Z,-0.94
2019-01-19T22:59:03.687Z,-0.93
2019-01-19T23:01:35.578Z,-0.95
2019-01-19T23:04:04.952Z,-1.02
2019-01-19T23:06:34.146Z,-1.02
2019-01-19T23:09:05.355Z,-1.05
2019-01-19T23:11:35.205Z,-1.07
2019-01-19T23:14:06.197Z,-1.10
2019-01-19T23:16:35.419Z,-1.11
2019-01-19T23:19:04.763Z,-1.14
2019-01-19T23:21:33.951Z,-1.18
2019-01-19T23:24:03.224Z,-1.15
2019-01-19T23:26:33.180Z,-1.19
2019-01-19T23:29:02.379Z,-1.20
2019-01-19T23:31:31.585Z,-1.21
2019-01-19T23:34:00.775Z,-1.24
2019-01-19T23:36:29.977Z,-1.25
2019-01-19T23:38:59.195Z,-1.28
2019-01-19T23:41:28.374Z,-1.27
2019-01-19T23:43:57.567Z,-1.30
2019-01-19T23:46:26.775Z,-1.32
2019-01-19T23:48:56.104Z,-1.32
2019-01-19T23:51:25.297Z,-1.36
2019-01-19T23:53:54.691Z,-1.37
2019-01-19T23:56:23.874Z,-1.38
2019-01-19T23:58:53.143Z,-1.39
